Time;durP1;ratioP1;P1;durP2;ratioP2;P2;SDS_P1;SDS_P2;PMS_P1;PMS_P2;Temp;Humidity;BMP_temperature;BMP_pressure;BME280_temperature;BME280_humidity;BME280_pressure;Samples;Min_cycle;Max_cycle;Signal;HPM_P1;HPM_P2
2022/08/01 00:00:22;;;;;;;0.00;0.00;;;;;;;19.68;100.00;101558.16;4980236;28;20046;-68
2022/08/01 00:02:47;;;;;;;0.00;0.00;;;;;;;19.68;100.00;101556.31;4981483;28;20042;-69
2022/08/01 00:05:12;;;;;;;0.03;0.03;;;;;;;19.66;100.00;101557.47;4983194;28;20026;-68
2022/08/01 00:07:38;;;;;;;0.00;0.00;;;;;;;19.67;100.00;101559.19;4981972;28;20048;-68
2022/08/01 00:10:05;;;;;;;0.00;0.00;;;;;;;19.60;100.00;101543.47;4981181;28;20081;-68
2022/08/01 00:12:31;;;;;;;0.00;0.00;;;;;;;19.71;100.00;101564.16;4980160;28;20031;-68
2022/08/01 00:14:56;;;;;;;0.00;0.00;;;;;;;19.70;100.00;101559.72;4976643;28;20036;-68
2022/08/01 00:17:21;;;;;;;0.00;0.00;;;;;;;19.72;100.00;101567.72;4981843;28;20124;-68
2022/08/01 00:19:46;;;;;;;0.00;0.00;;;;;;;19.63;100.00;101564.09;4979394;28;20081;-68
2022/08/01 00:22:12;;;;;;;0.00;0.00;;;;;;;19.62;100.00;101568.69;4976871;28;20406;-68
2022/08/01 00:24:37;;;;;;;0.00;0.00;;;;;;;19.55;100.00;101569.50;4977534;28;20037;-69
2022/08/01 00:27:02;;;;;;;0.00;0.00;;;;;;;19.51;100.00;101577.16;4980617;28;20022;-69
2022/08/01 00:29:28;;;;;;;0.00;0.00;;;;;;;19.42;100.00;101584.41;4977113;28;20070;-69
2022/08/01 00:31:53;;;;;;;0.00;0.00;;;;;;;19.31;100.00;101573.78;4982462;28;20054;-68
2022/08/01 00:34:19;;;;;;;0.00;0.00;;;;;;;19.29;100.00;101581.25;4981087;28;20026;-69
2022/08/01 00:36:44;;;;;;;0.00;0.00;;;;;;;19.25;100.00;101577.13;4981491;28;20541;-69
2022/08/01 00:39:09;;;;;;;0.00;0.00;;;;;;;19.17;100.00;101581.50;4985025;28;20129;-69
2022/08/01 00:41:35;;;;;;;0.00;0.00;;;;;;;19.22;100.00;101581.03;4977636;28;20027;-69
2022/08/01 00:44:06;;;;;;;0.00;0.00;;;;;;;19.10;100.00;101565.94;4981854;28;20439;-69
2022/08/01 00:46:32;;;;;;;0.00;0.00;;;;;;;19.15;100.00;101585.38;4980186;28;20049;-67
2022/08/01 00:48:58;;;;;;;0.00;0.00;;;;;;;19.12;100.00;101586.56;4981684;28;20089;-67
2022/08/01 00:51:24;;;;;;;0.00;0.00;;;;;;;19.07;100.00;101588.91;4981006;28;20470;-67
2022/08/01 00:53:50;;;;;;;0.00;0.00;;;;;;;19.02;100.00;101586.66;4981471;28;20061;-67
2022/08/01 00:56:16;;;;;;;0.00;0.00;;;;;;;19.04;100.00;101589.22;4985105;28;20068;-67
2022/08/01 00:58:42;;;;;;;0.00;0.00;;;;;;;19.06;100.00;101587.19;4977202;28;20031;-67
2022/08/01 01:01:07;;;;;;;0.00;0.00;;;;;;;19.00;100.00;101585.97;4982665;28;20057;-68
2022/08/01 01:03:33;;;;;;;0.00;0.00;;;;;;;19.05;100.00;101595.53;4978369;28;20105;-69
2022/08/01 01:06:19;;;;;;;0.00;0.00;;;;;;;18.97;100.00;101578.13;4976971;28;20628;-71
2022/08/01 01:09:24;;;;;;;0.00;0.00;;;;;;;19.00;100.00;101588.69;4983734;28;20038;-70
2022/08/01 01:12:11;;;;;;;0.00;0.00;;;;;;;18.76;100.00;101566.69;4973035;28;20085;-68
2022/08/01 01:15:00;;;;;;;0.00;0.00;;;;;;;18.96;100.00;101583.69;4981345;28;20045;-68
2022/08/01 01:17:32;;;;;;;0.00;0.00;;;;;;;18.80;100.00;101568.91;4981920;28;20413;-69
2022/08/01 01:19:59;;;;;;;0.00;0.00;;;;;;;18.87;100.00;101591.78;4980116;28;20490;-69
2022/08/01 01:23:06;;;;;;;0.00;0.00;;;;;;;18.88;100.00;101590.75;4976429;28;20097;-69
2022/08/01 01:25:37;;;;;;;0.00;0.00;;;;;;;18.91;100.00;101592.31;4975673;28;20617;-68
2022/08/01 01:28:17;;;;;;;0.00;0.00;;;;;;;18.88;100.00;101593.47;4983448;28;20030;-68
2022/08/01 01:30:45;;;;;;;0.00;0.00;;;;;;;18.89;100.00;101591.59;4978278;28;20049;-69
2022/08/01 01:33:11;;;;;;;0.00;0.00;;;;;;;18.91;100.00;101588.75;4979875;28;20022;-69
2022/08/01 01:35:40;;;;;;;0.00;0.00;;;;;;;18.92;100.00;101593.19;4972846;28;20186;-69
2022/08/01 01:38:12;;;;;;;0.00;0.00;;;;;;;18.91;100.00;101595.03;4975176;28;20022;-69
2022/08/01 01:40:38;;;;;;;0.00;0.00;;;;;;;18.89;100.00;101592.47;4977840;28;20418;-69
2022/08/01 01:43:04;;;;;;;0.00;0.00;;;;;;;18.89;100.00;101594.31;4980617;28;20026;-69
2022/08/01 01:45:29;;;;;;;0.00;0.00;;;;;;;18.89;100.00;101584.31;4981287;28;20038;-68
2022/08/01 01:47:56;;;;;;;0.00;0.00;;;;;;;18.77;100.00;101574.66;4985415;28;20053;-69
2022/08/01 01:50:23;;;;;;;0.00;0.00;;;;;;;18.80;100.00;101587.13;4985201;28;20066;-69
2022/08/01 01:52:49;;;;;;;0.00;0.00;;;;;;;18.82;100.00;101590.50;4975281;28;20061;-68
2022/08/01 01:55:15;;;;;;;0.00;0.00;;;;;;;18.81;100.00;101586.06;4961779;28;20462;-68
2022/08/01 01:57:41;;;;;;;0.00;0.00;;;;;;;18.73;100.00;101584.16;4980951;28;20073;-68
2022/08/01 02:00:09;;;;;;;0.00;0.00;;;;;;;18.74;100.00;101592.16;4993237;28;20105;-68
2022/08/01 02:02:36;;;;;;;0.00;0.00;;;;;;;18.73;100.00;101589.59;4974029;28;20042;-69
2022/08/01 02:05:01;;;;;;;0.00;0.00;;;;;;;18.70;100.00;101584.44;4978730;28;20041;-69
2022/08/01 02:07:27;;;;;;;0.00;0.00;;;;;;;18.67;100.00;101592.94;4971550;28;20027;-69
2022/08/01 02:09:54;;;;;;;0.00;0.00;;;;;;;18.65;100.00;101597.69;4978727;28;20030;-69
2022/08/01 02:12:21;;;;;;;0.00;0.00;;;;;;;18.63;100.00;101596.97;4974100;28;20069;-69
2022/08/01 02:14:47;;;;;;;0.00;0.00;;;;;;;18.65;100.00;101589.53;4980983;28;20037;-69
2022/08/01 02:17:16;;;;;;;0.00;0.00;;;;;;;18.69;100.00;101580.03;4980468;28;20034;-68
2022/08/01 02:19:41;;;;;;;0.00;0.00;;;;;;;18.60;100.00;101584.53;4979483;28;20173;-67
2022/08/01 02:22:11;;;;;;;0.00;0.00;;;;;;;18.61;100.00;101582.69;4983595;28;20525;-67
2022/08/01 02:24:42;;;;;;;0.00;0.00;;;;;;;18.55;100.00;101579.56;4983158;28;20034;-67
2022/08/01 02:27:10;;;;;;;0.00;0.00;;;;;;;18.54;100.00;101583.28;4982759;28;20029;-67
2022/08/01 02:29:46;;;;;;;0.00;0.00;;;;;;;18.52;100.00;101587.19;4981957;28;20374;-67
2022/08/01 02:32:14;;;;;;;0.00;0.00;;;;;;;18.46;100.00;101576.91;4994186;28;20041;-67
2022/08/01 02:34:41;;;;;;;0.00;0.00;;;;;;;18.47;100.00;101575.91;4975717;28;20038;-67
2022/08/01 02:37:07;;;;;;;0.00;0.00;;;;;;;18.47;100.00;101581.34;4983880;28;20509;-67
2022/08/01 02:39:34;;;;;;;0.00;0.00;;;;;;;18.44;100.00;101588.78;4980142;28;20027;-67
2022/08/01 02:42:04;;;;;;;0.00;0.00;;;;;;;18.41;100.00;101585.50;4979000;28;20030;-67
2022/08/01 02:44:33;;;;;;;0.00;0.00;;;;;;;18.39;100.00;101585.69;4978115;28;20451;-67
2022/08/01 02:47:02;;;;;;;0.00;0.00;;;;;;;18.22;100.00;101560.16;4982074;28;20037;-67
2022/08/01 02:49:30;;;;;;;0.00;0.00;;;;;;;18.37;100.00;101581.41;4974397;28;20034;-67
2022/08/01 02:51:56;;;;;;;0.00;0.00;;;;;;;18.37;100.00;101590.41;4978635;28;20478;-67
2022/08/01 02:54:23;;;;;;;0.00;0.00;;;;;;;18.22;100.00;101587.34;4982590;28;20044;-67
2022/08/01 02:56:50;;;;;;;0.00;0.00;;;;;;;18.13;100.00;101589.13;4983225;28;20030;-67
2022/08/01 02:59:18;;;;;;;0.00;0.00;;;;;;;18.10;100.00;101594.00;4981315;28;20030;-67
2022/08/01 03:01:45;;;;;;;0.00;0.00;;;;;;;18.07;100.00;101580.72;4980129;28;20628;-67
2022/08/01 03:04:11;;;;;;;0.00;0.00;;;;;;;18.18;100.00;101591.38;4976767;28;20030;-67
2022/08/01 03:06:37;;;;;;;0.00;0.00;;;;;;;18.19;100.00;101594.97;4984335;28;20026;-67
2022/08/01 03:09:04;;;;;;;0.00;0.00;;;;;;;18.09;100.00;101593.13;4975380;28;20126;-67
2022/08/01 03:11:30;;;;;;;0.00;0.00;;;;;;;18.02;100.00;101583.88;4976145;28;20042;-67
2022/08/01 03:13:57;;;;;;;0.00;0.00;;;;;;;17.98;100.00;101598.75;4975282;28;20031;-66
2022/08/01 03:16:23;;;;;;;0.00;0.00;;;;;;;17.93;100.00;101590.19;4983544;28;20473;-67
2022/08/01 03:18:50;;;;;;;0.00;0.00;;;;;;;17.87;100.00;101586.22;4981242;28;20041;-67
2022/08/01 03:21:18;;;;;;;0.00;0.00;;;;;;;17.80;100.00;101591.38;4981961;28;20557;-66
2022/08/01 03:23:45;;;;;;;0.00;0.00;;;;;;;17.79;100.00;101594.25;4981113;28;20474;-68
2022/08/01 03:26:10;;;;;;;0.00;0.00;;;;;;;17.82;100.00;101593.97;4977621;28;20061;-69
2022/08/01 03:28:37;;;;;;;0.00;0.00;;;;;;;17.82;100.00;101596.69;4979367;28;20149;-69
2022/08/01 03:31:02;;;;;;;0.00;0.00;;;;;;;17.82;100.00;101591.25;4977443;28;20556;-69
2022/08/01 03:33:27;;;;;;;0.00;0.00;;;;;;;17.78;100.00;101598.81;4982793;28;20046;-69
2022/08/01 03:35:54;;;;;;;0.00;0.00;;;;;;;17.84;100.00;101598.22;4984094;28;20034;-69
2022/08/01 03:38:23;;;;;;;0.00;0.00;;;;;;;17.90;100.00;101601.34;4984279;28;20048;-69
2022/08/01 03:41:26;;;;;;;0.00;0.00;;;;;;;17.92;100.00;101594.75;4979856;28;20465;-69
2022/08/01 03:43:55;;;;;;;0.00;0.00;;;;;;;17.99;100.00;101600.50;4984182;28;20034;-68
2022/08/01 03:46:29;;;;;;;0.00;0.00;;;;;;;18.03;100.00;101601.03;4980348;28;20057;-67
2022/08/01 03:48:58;;;;;;;0.00;0.00;;;;;;;18.09;100.00;101603.16;4983677;28;20022;-68
2022/08/01 03:51:24;;;;;;;0.00;0.00;;;;;;;18.09;100.00;101604.00;4987121;28;20076;-67
2022/08/01 03:53:50;;;;;;;0.00;0.00;;;;;;;18.16;100.00;101615.13;4978183;28;20034;-68
2022/08/01 03:56:19;;;;;;;0.00;0.00;;;;;;;18.06;100.00;101589.88;4978596;28;20038;-68
2022/08/01 03:58:44;;;;;;;0.00;0.00;;;;;;;18.25;100.00;101608.78;4980514;28;20334;-68
2022/08/01 04:01:10;;;;;;;0.00;0.00;;;;;;;18.26;100.00;101610.50;4984499;28;20030;-68
2022/08/01 04:03:36;;;;;;;0.00;0.00;;;;;;;18.31;100.00;101615.47;4980716;28;20030;-68
2022/08/01 04:06:04;;;;;;;0.03;0.03;;;;;;;18.33;100.00;101610.75;4981926;28;20081;-68
2022/08/01 04:08:36;;;;;;;0.00;0.00;;;;;;;18.35;100.00;101607.91;4982175;28;20437;-68
2022/08/01 04:11:02;;;;;;;0.00;0.00;;;;;;;18.37;100.00;101603.16;4981889;28;20106;-68
2022/08/01 04:13:27;;;;;;;0.00;0.00;;;;;;;18.41;100.00;101613.56;4979776;28;20038;-68
2022/08/01 04:15:53;;;;;;;0.00;0.00;;;;;;;18.43;100.00;101608.84;4978502;28;20030;-68
2022/08/01 04:18:18;;;;;;;0.00;0.00;;;;;;;18.43;100.00;101606.13;4983054;28;20026;-68
2022/08/01 04:20:43;;;;;;;0.00;0.00;;;;;;;18.41;100.00;101599.97;4983424;28;20036;-68
2022/08/01 04:23:10;;;;;;;0.00;0.00;;;;;;;18.41;100.00;101601.81;4979690;28;20030;-68
2022/08/01 04:25:39;;;;;;;0.00;0.00;;;;;;;18.37;100.00;101617.59;4974920;28;20478;-68
2022/08/01 04:28:07;;;;;;;0.00;0.00;;;;;;;18.40;100.00;101611.84;4978863;28;20438;-69
2022/08/01 04:30:34;;;;;;;0.00;0.00;;;;;;;18.40;100.00;101617.28;4979300;28;20026;-69
2022/08/01 04:33:01;;;;;;;0.00;0.00;;;;;;;18.33;100.00;101616.19;4978872;28;20121;-69
2022/08/01 04:35:26;;;;;;;0.00;0.00;;;;;;;18.27;100.00;101620.38;4984830;28;20042;-67
2022/08/01 04:37:52;;;;;;;0.00;0.00;;;;;;;18.27;100.00;101616.81;4981421;28;20070;-68
2022/08/01 04:40:21;;;;;;;0.00;0.00;;;;;;;18.27;100.00;101619.53;4985244;28;20030;-68
2022/08/01 04:42:48;;;;;;;0.00;0.00;;;;;;;18.28;100.00;101618.50;4982865;28;20030;-68
2022/08/01 04:45:14;;;;;;;0.00;0.00;;;;;;;18.33;100.00;101627.06;4982900;28;20433;-67
2022/08/01 04:47:40;;;;;;;0.00;0.00;;;;;;;18.32;100.00;101629.94;4985719;28;20040;-67
2022/08/01 04:50:07;;;;;;;0.00;0.00;;;;;;;18.32;100.00;101632.66;4984027;28;20022;-67
2022/08/01 04:52:36;;;;;;;0.00;0.00;;;;;;;18.29;100.00;101631.94;4986326;28;20481;-67
2022/08/01 04:55:03;;;;;;;0.00;0.00;;;;;;;18.30;100.00;101638.22;4984398;28;20061;-67
2022/08/01 04:57:29;;;;;;;0.00;0.00;;;;;;;18.29;100.00;101633.78;4975148;28;20121;-67
2022/08/01 04:59:56;;;;;;;0.00;0.00;;;;;;;18.23;100.00;101631.72;4981427;28;20526;-68
2022/08/01 05:02:22;;;;;;;0.00;0.00;;;;;;;18.29;100.00;101633.78;4977591;28;20093;-68
2022/08/01 05:04:48;;;;;;;0.00;0.00;;;;;;;18.29;100.00;101633.78;4976398;28;20030;-68
2022/08/01 05:07:15;;;;;;;0.00;0.00;;;;;;;18.24;100.00;101623.38;4980562;28;20085;-69
2022/08/01 05:09:42;;;;;;;0.00;0.00;;;;;;;18.39;100.00;101644.66;4982568;28;20533;-69
2022/08/01 05:12:08;;;;;;;0.00;0.00;;;;;;;18.40;100.00;101638.19;4977694;28;20038;-69
2022/08/01 05:14:35;;;;;;;0.00;0.00;;;;;;;18.44;100.00;101642.31;4979689;28;20033;-69
2022/08/01 05:17:02;;;;;;;0.00;0.00;;;;;;;18.47;100.00;101652.03;4986792;28;20034;-69
2022/08/01 05:19:38;;;;;;;0.00;0.00;;;;;;;18.41;100.00;101632.59;4981184;28;20106;-66
2022/08/01 05:22:05;;;;;;;0.00;0.00;;;;;;;18.57;100.00;101650.97;4984151;28;20156;-67
2022/08/01 05:24:32;;;;;;;0.00;0.00;;;;;;;18.63;100.00;101656.81;4974068;28;20034;-67
2022/08/01 05:26:58;;;;;;;0.00;0.00;;;;;;;18.64;100.00;101651.19;4979840;28;20053;-67
2022/08/01 05:29:23;;;;;;;0.00;0.00;;;;;;;18.71;100.00;101654.16;4981426;28;20026;-66
2022/08/01 05:31:49;;;;;;;0.00;0.00;;;;;;;18.72;100.00;101653.16;4982860;28;20026;-66
2022/08/01 05:34:14;;;;;;;0.00;0.00;;;;;;;18.77;100.00;101656.28;4984192;28;20506;-66
2022/08/01 05:36:39;;;;;;;0.00;0.00;;;;;;;18.83;100.00;101658.38;4981814;28;20552;-66
2022/08/01 05:39:05;;;;;;;0.00;0.00;;;;;;;18.85;100.00;101664.53;4982616;28;20034;-66
2022/08/01 05:41:30;;;;;;;0.00;0.00;;;;;;;18.73;100.00;101638.53;4981801;28;20038;-66
2022/08/01 05:43:56;;;;;;;0.00;0.00;;;;;;;18.89;100.00;101662.34;4983729;28;20085;-66
2022/08/01 05:46:21;;;;;;;0.00;0.00;;;;;;;18.90;100.00;101661.34;4978263;28;20121;-66
2022/08/01 05:48:46;;;;;;;0.00;0.00;;;;;;;18.94;100.00;101661.88;4985773;28;20026;-67
2022/08/01 05:51:11;;;;;;;0.00;0.00;;;;;;;19.02;100.00;101662.00;4982423;28;20060;-66
2022/08/01 05:53:37;;;;;;;0.00;0.00;;;;;;;19.08;100.00;101652.34;4982371;28;20132;-67
2022/08/01 05:56:02;;;;;;;0.00;0.00;;;;;;;19.12;100.00;101662.78;4977387;28;20030;-67
2022/08/01 05:58:28;;;;;;;0.00;0.00;;;;;;;19.21;100.00;101669.16;4979908;28;20036;-66
2022/08/01 06:00:53;;;;;;;0.00;0.00;;;;;;;19.27;100.00;101667.66;4980352;28;20173;-67
2022/08/01 06:03:18;;;;;;;0.00;0.00;;;;;;;19.30;100.00;101664.63;4979760;28;20105;-67
2022/08/01 06:05:44;;;;;;;0.00;0.00;;;;;;;19.21;100.00;101644.66;4981462;28;20725;-67
2022/08/01 06:08:09;;;;;;;0.00;0.00;;;;;;;19.28;100.00;101672.09;4975195;28;20041;-66
2022/08/01 06:10:34;;;;;;;0.00;0.00;;;;;;;19.30;100.00;101675.50;4978511;28;20038;-66
2022/08/01 06:13:02;;;;;;;0.00;0.00;;;;;;;19.31;100.00;101666.34;4981900;28;20034;-66
2022/08/01 06:15:29;;;;;;;0.00;0.00;;;;;;;19.36;100.00;101664.00;4977061;28;20128;-66
2022/08/01 06:17:54;;;;;;;0.00;0.00;;;;;;;19.38;100.00;101664.69;4979391;28;20030;-66
2022/08/01 06:20:19;;;;;;;0.00;0.00;;;;;;;19.37;100.00;101670.28;4983895;28;20042;-66
2022/08/01 06:22:45;;;;;;;0.00;0.00;;;;;;;19.36;100.00;101669.44;4983440;28;20022;-68
2022/08/01 06:25:10;;;;;;;0.00;0.00;;;;;;;19.33;100.00;101662.44;4980736;28;20089;-66
2022/08/01 06:27:35;;;;;;;0.00;0.00;;;;;;;19.34;100.00;101672.31;4981860;28;20040;-67
2022/08/01 06:30:01;;;;;;;0.00;0.00;;;;;;;19.38;100.00;101672.00;4979969;28;20548;-68
2022/08/01 06:32:26;;;;;;;0.00;0.00;;;;;;;19.41;100.00;101682.56;4980894;28;20064;-67
2022/08/01 06:34:52;;;;;;;0.00;0.00;;;;;;;19.38;100.00;101672.00;4978242;28;20041;-67
2022/08/01 06:37:17;;;;;;;0.00;0.00;;;;;;;19.41;100.00;101671.69;4979636;28;20058;-67
2022/08/01 06:39:43;;;;;;;0.00;0.00;;;;;;;19.41;100.00;101674.41;4983989;28;20049;-67
2022/08/01 06:42:09;;;;;;;0.00;0.00;;;;;;;19.43;100.00;101669.66;4974536;28;20066;-67
2022/08/01 06:44:34;;;;;;;0.00;0.00;;;;;;;19.46;100.00;101680.25;4980359;28;20497;-66
2022/08/01 06:47:00;;;;;;;0.00;0.00;;;;;;;19.51;100.00;101680.63;4973800;28;20061;-67
2022/08/01 06:49:25;;;;;;;0.00;0.00;;;;;;;19.51;100.00;101679.75;4980456;28;20022;-67
2022/08/01 06:51:50;;;;;;;0.00;0.00;;;;;;;19.57;100.00;101690.91;4980316;28;20026;-67
2022/08/01 06:54:16;;;;;;;0.00;0.00;;;;;;;19.60;99.35;101687.00;4982480;28;20100;-67
2022/08/01 06:56:42;;;;;;;0.00;0.00;;;;;;;19.70;98.85;101689.63;4982300;28;20125;-66
2022/08/01 06:59:08;;;;;;;0.00;0.00;;;;;;;19.69;97.88;101688.78;4986450;28;20034;-66
2022/08/01 07:01:33;;;;;;;0.00;0.00;;;;;;;19.69;97.65;101687.91;4983242;28;20034;-66
2022/08/01 07:03:59;;;;;;;0.00;0.00;;;;;;;19.76;98.22;101689.81;4983846;28;20033;-67
2022/08/01 07:06:25;;;;;;;0.00;0.00;;;;;;;19.85;97.31;101692.63;4979513;28;20461;-66
2022/08/01 07:08:51;;;;;;;0.00;0.00;;;;;;;19.96;96.56;101683.34;4983301;28;20033;-66
2022/08/01 07:11:16;;;;;;;0.00;0.00;;;;;;;19.99;96.03;101683.03;4978370;28;20033;-66
2022/08/01 07:13:42;;;;;;;0.00;0.00;;;;;;;20.06;95.74;101693.13;4984634;28;20030;-67
2022/08/01 07:16:07;;;;;;;0.00;0.00;;;;;;;19.90;95.44;101671.22;4978459;28;20035;-66
2022/08/01 07:18:32;;;;;;;0.00;0.00;;;;;;;20.08;94.87;101687.50;4982765;28;20660;-66
2022/08/01 07:20:58;;;;;;;0.00;0.00;;;;;;;20.14;94.36;101694.19;4984182;28;20481;-67
2022/08/01 07:23:23;;;;;;;0.00;0.00;;;;;;;20.17;93.87;101693.84;4985135;28;20038;-67
2022/08/01 07:25:50;;;;;;;0.00;0.00;;;;;;;20.22;93.93;101686.91;4988063;28;20048;-67
2022/08/01 07:28:16;;;;;;;0.00;0.00;;;;;;;20.44;93.24;101698.22;4983887;28;20034;-67
2022/08/01 07:30:41;;;;;;;0.00;0.00;;;;;;;20.49;92.80;101695.03;4982641;28;20021;-67
2022/08/01 07:33:07;;;;;;;0.00;0.00;;;;;;;20.36;91.94;101673.69;4985259;28;20239;-67
2022/08/01 07:35:32;;;;;;;0.00;0.00;;;;;;;20.52;91.98;101705.63;4976695;28;20033;-66
2022/08/01 07:37:58;;;;;;;0.00;0.00;;;;;;;20.44;92.58;101700.13;4986372;28;20517;-67
2022/08/01 07:40:23;;;;;;;0.00;0.00;;;;;;;20.41;91.78;101708.63;4983545;28;22109;-67
2022/08/01 07:42:48;;;;;;;0.00;0.00;;;;;;;20.37;91.57;101706.22;4983658;28;20034;-67
2022/08/01 07:45:15;;;;;;;0.10;0.10;;;;;;;20.20;92.59;101715.34;4983485;28;20109;-67
2022/08/01 07:47:40;;;;;;;0.00;0.00;;;;;;;20.06;92.64;101725.81;4987115;28;20520;-67
2022/08/01 07:50:06;;;;;;;0.00;0.00;;;;;;;19.98;93.30;101727.66;4986189;28;20019;-67
2022/08/01 07:52:32;;;;;;;0.00;0.00;;;;;;;19.82;94.54;101729.22;4975893;28;20027;-67
2022/08/01 07:54:58;;;;;;;0.00;0.00;;;;;;;19.74;95.22;101731.88;4990622;28;20072;-67
2022/08/01 07:57:24;;;;;;;0.00;0.00;;;;;;;19.75;95.98;101736.31;4988964;28;20030;-67
2022/08/01 07:59:49;;;;;;;0.00;0.00;;;;;;;19.73;96.21;101735.63;4986389;28;20398;-66
2022/08/01 08:02:15;;;;;;;0.00;0.00;;;;;;;19.85;97.13;101730.75;4981208;28;20046;-66
2022/08/01 08:04:40;;;;;;;0.08;0.08;;;;;;;20.01;97.60;101730.91;4985787;28;20438;-66
2022/08/01 08:07:06;;;;;;;0.00;0.00;;;;;;;19.95;95.34;101709.75;4982517;28;20026;-66
2022/08/01 08:09:31;;;;;;;0.00;0.00;;;;;;;20.01;94.79;101692.75;4983484;28;20030;-67
2022/08/01 08:11:56;;;;;;;0.00;0.00;;;;;;;20.36;95.90;101731.78;4982056;28;20036;-67
2022/08/01 08:14:23;;;;;;;0.00;0.00;;;;;;;20.50;93.68;101727.59;4987313;28;20033;-67
2022/08/01 08:16:49;;;;;;;0.00;0.00;;;;;;;20.56;92.14;101728.78;4984726;28;20405;-67
2022/08/01 08:19:14;;;;;;;0.00;0.00;;;;;;;20.62;90.90;101730.88;4982887;28;20030;-66
2022/08/01 08:21:40;;;;;;;0.00;0.00;;;;;;;20.76;92.73;101725.81;4986949;28;20026;-66
2022/08/01 08:24:22;;;;;;;0.00;0.00;;;;;;;20.95;90.42;101735.63;4987111;28;20057;-67
2022/08/01 08:26:48;;;;;;;0.00;0.00;;;;;;;21.01;87.92;101724.03;4978618;28;20074;-67
2022/08/01 08:29:13;;;;;;;0.00;0.00;;;;;;;21.24;88.13;101726.97;4988572;28;20706;-66
2022/08/01 08:31:39;;;;;;;0.00;0.00;;;;;;;21.35;86.09;101733.13;4987330;28;20375;-67
2022/08/01 08:34:04;;;;;;;0.00;0.00;;;;;;;21.56;85.38;101735.38;4984217;28;20031;-68
2022/08/01 08:36:30;;;;;;;0.00;0.00;;;;;;;21.78;84.44;101736.59;4984831;28;20031;-67
2022/08/01 08:38:55;;;;;;;0.00;0.00;;;;;;;22.01;83.99;101731.25;4983241;28;20061;-67
2022/08/01 08:41:22;;;;;;;0.00;0.00;;;;;;;22.24;81.22;101736.00;4980227;28;20034;-67
2022/08/01 08:43:47;;;;;;;0.00;0.00;;;;;;;22.30;79.53;101718.88;4985706;28;20061;-67
2022/08/01 08:46:14;;;;;;;0.00;0.00;;;;;;;22.68;81.21;101736.53;4986234;28;20113;-67
2022/08/01 08:48:40;;;;;;;0.00;0.00;;;;;;;22.70;80.47;101732.59;4983959;28;20113;-66
2022/08/01 08:51:08;;;;;;;0.00;0.00;;;;;;;22.67;78.31;101741.16;4978045;28;20026;-66
2022/08/01 08:53:34;;;;;;;0.00;0.00;;;;;;;22.52;77.60;101721.88;4986010;28;20029;-67
2022/08/01 08:55:59;;;;;;;0.00;0.00;;;;;;;22.72;77.98;101737.91;4985446;28;20033;-67
2022/08/01 08:58:26;;;;;;;0.00;0.00;;;;;;;22.56;76.58;101739.66;4985829;28;20034;-67
2022/08/01 09:00:53;;;;;;;0.00;0.00;;;;;;;22.61;77.35;101726.31;4976348;28;20037;-67
2022/08/01 09:03:18;;;;;;;0.00;0.00;;;;;;;22.90;77.70;101729.44;4978328;28;20138;-67
2022/08/01 09:05:44;;;;;;;0.00;0.00;;;;;;;23.02;76.65;101743.56;4983655;28;20034;-66
2022/08/01 09:08:09;;;;;;;0.00;0.00;;;;;;;22.85;75.33;101731.84;4985026;28;20030;-69
2022/08/01 09:10:34;;;;;;;0.00;0.00;;;;;;;22.90;76.30;101745.84;4983779;28;20347;-67
2022/08/01 09:13:10;;;;;;;0.00;0.00;;;;;;;22.89;77.27;101752.38;4979779;28;20062;-68
2022/08/01 09:15:52;;;;;;;0.00;0.00;;;;;;;22.87;76.08;101749.78;4978463;28;20382;-67
2022/08/01 09:18:40;;;;;;;0.00;0.00;;;;;;;22.78;75.02;101753.59;4985785;28;20033;-67
2022/08/01 09:21:06;;;;;;;0.00;0.00;;;;;;;22.94;75.35;101760.88;4981171;28;20034;-67
2022/08/01 09:23:35;;;;;;;0.00;0.00;;;;;;;22.83;76.04;101750.34;4975522;28;20035;-67
2022/08/01 09:26:00;;;;;;;0.00;0.00;;;;;;;22.96;74.37;101760.69;4987066;28;20061;-67
2022/08/01 09:28:29;;;;;;;0.00;0.00;;;;;;;23.10;73.79;101767.31;4984903;28;20478;-67
2022/08/01 09:30:58;;;;;;;0.00;0.00;;;;;;;23.10;74.16;101767.31;4975119;28;20037;-67
2022/08/01 09:33:24;;;;;;;0.00;0.00;;;;;;;23.15;72.94;101770.34;4981982;28;20058;-67
2022/08/01 09:35:57;;;;;;;0.00;0.00;;;;;;;23.23;74.10;101775.78;4978789;28;20502;-67
2022/08/01 09:38:26;;;;;;;0.00;0.00;;;;;;;23.37;73.34;101771.41;4979500;28;20490;-67
2022/08/01 09:40:59;;;;;;;0.00;0.00;;;;;;;23.28;72.19;101769.78;4983123;28;20132;-67
2022/08/01 09:43:26;;;;;;;;;;;;;;;23.10;71.90;101770.03;4996238;28;20054;-67
2022/08/01 09:45:51;;;;;;;0.00;0.00;;;;;;;23.05;72.36;101767.81;4986324;28;19913;-66
2022/08/01 09:48:17;;;;;;;0.00;0.00;;;;;;;22.93;73.83;101770.09;4986353;28;20105;-67
2022/08/01 09:50:45;;;;;;;0.00;0.00;;;;;;;22.91;73.52;101766.69;4984050;28;20375;-67
2022/08/01 09:53:11;;;;;;;0.00;0.00;;;;;;;22.84;74.40;101771.19;4979446;28;20034;-67
2022/08/01 09:55:37;;;;;;;0.00;0.00;;;;;;;22.76;74.70;101775.69;4986663;28;20030;-67
2022/08/01 09:58:04;;;;;;;0.00;0.00;;;;;;;22.75;75.93;101775.88;4977524;28;20058;-67
2022/08/01 10:00:29;;;;;;;0.00;0.00;;;;;;;22.57;75.38;101770.63;4979622;28;20033;-66
2022/08/01 10:02:55;;;;;;;0.00;0.00;;;;;;;22.68;75.06;101770.22;4983300;28;20038;-67
2022/08/01 10:05:30;;;;;;;0.00;0.00;;;;;;;22.80;75.84;101772.59;4980982;28;20034;-67
2022/08/01 10:08:01;;;;;;;0.00;0.00;;;;;;;22.95;75.29;101743.41;4971203;28;20033;-67
2022/08/01 10:10:27;;;;;;;0.00;0.00;;;;;;;23.36;76.58;101776.06;4986458;28;20065;-67
2022/08/01 10:12:53;;;;;;;0.00;0.00;;;;;;;23.56;73.05;101782.94;4979158;28;20022;-67
2022/08/01 10:15:20;;;;;;;0.00;0.00;;;;;;;23.79;74.67;101781.03;4977368;28;20113;-67
2022/08/01 10:18:04;;;;;;;0.00;0.00;;;;;;;23.85;71.96;101792.28;4980035;28;20497;-67
2022/08/01 10:20:30;;;;;;;;;;;;;;;23.56;70.12;101778.31;4978402;28;20038;-67
2022/08/01 10:22:58;;;;;;;0.00;0.00;;;;;;;23.85;73.33;101790.41;4979739;28;19917;-67
2022/08/01 10:25:27;;;;;;;0.10;0.00;;;;;;;23.81;71.87;101791.81;4979958;28;20427;-67
2022/08/01 10:27:57;;;;;;;0.00;0.00;;;;;;;23.62;71.41;101790.41;4986059;28;20109;-67
2022/08/01 10:30:23;;;;;;;0.00;0.00;;;;;;;23.39;73.67;101791.28;4983031;28;20364;-67
2022/08/01 10:32:50;;;;;;;0.00;0.00;;;;;;;23.07;73.54;101791.28;4985808;28;20137;-67
2022/08/01 10:35:18;;;;;;;0.00;0.00;;;;;;;22.97;73.60;101770.63;4984018;28;20493;-67
2022/08/01 10:37:45;;;;;;;0.00;0.00;;;;;;;22.89;74.44;101796.16;4981561;28;20034;-67
2022/08/01 10:40:13;;;;;;;0.00;0.00;;;;;;;22.50;75.15;101778.69;4979946;28;20046;-68
2022/08/01 10:42:42;;;;;;;0.00;0.00;;;;;;;22.58;75.68;101806.00;4980643;28;20022;-67
2022/08/01 10:45:09;;;;;;;0.00;0.00;;;;;;;22.25;76.26;101791.53;4976864;28;20042;-67
2022/08/01 10:47:42;;;;;;;0.00;0.00;;;;;;;22.34;76.29;101801.44;4983367;28;20038;-67
2022/08/01 10:50:20;;;;;;;0.00;0.00;;;;;;;22.74;77.24;101799.63;4984995;28;20026;-67
2022/08/01 10:53:08;;;;;;;0.00;0.00;;;;;;;23.47;76.15;101804.06;4977485;28;20560;-68
2022/08/01 10:56:00;;;;;;;0.00;0.00;;;;;;;24.16;70.45;101802.31;4980640;28;20113;-67
2022/08/01 10:58:37;;;;;;;0.00;0.00;;;;;;;24.42;69.43;101802.72;4980247;28;20033;-68
2022/08/01 11:01:22;;;;;;;0.00;0.00;;;;;;;24.27;68.15;101796.38;4981351;28;20026;-67
2022/08/01 11:03:58;;;;;;;0.00;0.00;;;;;;;24.26;69.76;101800.16;4979567;28;20030;-67
2022/08/01 11:06:26;;;;;;;0.00;0.00;;;;;;;24.03;68.65;101811.19;4979396;28;20111;-67
2022/08/01 11:08:53;;;;;;;0.00;0.00;;;;;;;23.62;70.38;101809.59;4974248;28;20030;-67
2022/08/01 11:11:19;;;;;;;0.00;0.00;;;;;;;23.37;71.01;101807.03;4975315;28;20027;-68
2022/08/01 11:14:01;;;;;;;0.00;0.00;;;;;;;23.42;71.89;101809.25;4982637;28;20525;-68
2022/08/01 11:16:30;;;;;;;0.00;0.00;;;;;;;23.55;70.82;101817.72;4985452;28;20506;-67
2022/08/01 11:18:55;;;;;;;0.00;0.00;;;;;;;23.67;71.80;101818.13;4964526;28;20031;-68
2022/08/01 11:21:23;;;;;;;0.00;0.00;;;;;;;23.46;71.98;101807.84;4981260;28;20371;-68
2022/08/01 11:23:53;;;;;;;0.00;0.00;;;;;;;23.46;69.92;101807.84;4980542;28;20617;-69